Time;durP1;ratioP1;P1;durP2;ratioP2;P2;SDS_P1;SDS_P2;PMS_P1;PMS_P2;Temp;Humidity;BMP_temperature;BMP_pressure;BME280_temperature;BME280_humidity;BME280_pressure;Samples;Min_cycle;Max_cycle;Signal;HPM_P1;HPM_P2
2022/03/17 00:01:36;;;;;;;27.75;19.67;;;10.90;99.90;;;;;;5098029;28;20043;-87
2022/03/17 00:04:01;;;;;;;29.85;20.05;;;10.80;99.90;;;;;;5097748;28;20066;-87
2022/03/17 00:06:28;;;;;;;28.13;19.38;;;11.00;99.90;;;;;;5115371;28;20047;-88
2022/03/17 00:08:53;;;;;;;28.75;19.88;;;10.90;99.90;;;;;;5097545;28;20109;-88
2022/03/17 00:11:20;;;;;;;26.67;18.75;;;11.10;99.90;;;;;;5098023;28;20044;-88
2022/03/17 00:13:45;;;;;;;30.40;19.98;;;10.80;99.90;;;;;;5097754;28;20423;-88
2022/03/17 00:16:11;;;;;;;30.13;20.75;;;10.90;99.90;;;;;;5097914;28;20045;-88
2022/03/17 00:18:37;;;;;;;27.77;19.45;;;10.80;99.90;;;;;;5098092;28;20397;-89
2022/03/17 00:21:03;;;;;;;30.52;19.35;;;10.80;99.90;;;;;;5097674;28;20044;-87
2022/03/17 00:23:29;;;;;;;27.13;18.67;;;10.80;99.90;;;;;;5114793;28;20485;-88
2022/03/17 00:25:55;;;;;;;27.83;19.67;;;10.80;99.90;;;;;;5098066;28;20401;-88
2022/03/17 00:28:21;;;;;;;30.58;20.27;;;10.70;99.90;;;;;;5097618;28;20481;-88
2022/03/17 00:30:46;;;;;;;31.75;20.10;;;10.80;99.90;;;;;;5114478;28;20050;-88
2022/03/17 00:33:12;;;;;;;27.00;19.55;;;10.70;99.90;;;;;;5080305;28;20075;-88
2022/03/17 00:35:42;;;;;;;28.33;20.10;;;10.80;99.90;;;;;;5114377;28;20070;-88
2022/03/17 00:38:13;;;;;;;28.23;19.63;;;10.70;99.90;;;;;;5097586;28;20047;-88
2022/03/17 00:40:40;;;;;;;28.92;20.85;;;10.70;99.90;;;;;;5097326;28;20586;-88
2022/03/17 00:43:08;;;;;;;31.40;19.33;;;10.70;99.90;;;;;;5097485;28;20035;-89
2022/03/17 00:45:34;;;;;;;30.23;20.08;;;10.70;99.90;;;;;;5080486;28;20534;-88
2022/03/17 00:48:01;;;;;;;29.92;20.80;;;10.70;99.90;;;;;;5080686;28;20047;-87
2022/03/17 00:50:27;;;;;;;28.33;20.27;;;10.70;99.90;;;;;;5080675;28;20044;-87
2022/03/17 00:52:53;;;;;;;25.88;19.17;;;10.70;99.90;;;;;;5097186;28;20058;-87
2022/03/17 00:55:19;;;;;;;31.63;20.48;;;10.70;99.90;;;;;;5097359;28;20047;-88
2022/03/17 00:57:47;;;;;;;27.08;18.75;;;10.70;99.90;;;;;;5079840;28;20047;-88
2022/03/17 01:00:18;;;;;;;29.00;19.92;;;10.70;99.90;;;;;;5097000;28;20108;-88
2022/03/17 01:02:45;;;;;;;29.73;20.67;;;10.70;99.90;;;;;;5080333;28;20039;-88
2022/03/17 01:05:12;;;;;;;29.80;20.17;;;10.70;99.90;;;;;;5079237;28;20044;-88
2022/03/17 01:07:38;;;;;;;27.42;19.08;;;10.90;99.90;;;;;;5097034;28;20062;-88
2022/03/17 01:10:05;;;;;;;26.23;18.73;;;10.80;99.90;;;;;;5114152;28;20051;-88
2022/03/17 01:12:32;;;;;;;28.95;19.88;;;10.70;99.90;;;;;;5078956;28;20105;-88
2022/03/17 01:14:58;;;;;;;27.50;19.42;;;10.80;99.90;;;;;;5079255;28;20047;-89
2022/03/17 01:17:24;;;;;;;30.83;19.52;;;10.70;99.90;;;;;;5079743;28;20054;-88
2022/03/17 01:19:50;;;;;;;28.02;20.17;;;10.80;99.90;;;;;;5097142;28;20039;-88
2022/03/17 01:22:16;;;;;;;30.10;20.48;;;10.70;99.90;;;;;;5096659;28;20046;-87
2022/03/17 01:24:42;;;;;;;32.97;20.38;;;10.70;99.90;;;;;;5096700;28;20043;-88
2022/03/17 01:27:08;;;;;;;31.50;20.45;;;10.70;99.90;;;;;;5096557;28;20036;-88
2022/03/17 01:29:34;;;;;;;32.47;20.73;;;10.70;99.90;;;;;;5096608;28;20047;-88
2022/03/17 01:32:00;;;;;;;29.42;19.80;;;10.70;99.90;;;;;;5079546;28;20056;-88
2022/03/17 01:34:26;;;;;;;30.27;20.13;;;10.70;99.90;;;;;;5096060;28;20124;-88
2022/03/17 01:36:52;;;;;;;31.00;20.40;;;10.90;99.90;;;;;;5079513;28;20109;-88
2022/03/17 01:39:17;;;;;;;30.80;20.83;;;10.70;99.90;;;;;;5079213;28;20056;-89
2022/03/17 01:41:43;;;;;;;27.95;20.13;;;10.70;99.90;;;;;;5113426;28;20050;-88
2022/03/17 01:44:09;;;;;;;30.30;21.38;;;10.60;99.90;;;;;;5113295;28;20128;-89
2022/03/17 01:47:26;;;;;;;32.17;20.90;;;10.60;99.90;;;;;;5096057;28;20055;-87
2022/03/17 01:49:20;;;;;;;30.60;21.10;;;10.60;99.90;;;;;;5096246;28;20141;-88
2022/03/17 01:51:47;;;;;;;31.88;22.20;;;10.40;99.90;;;;;;5095447;28;20184;-88
2022/03/17 01:54:14;;;;;;;32.53;22.55;;;10.20;99.90;;;;;;5079070;28;20051;-88
2022/03/17 01:56:39;;;;;;;34.35;24.02;;;10.00;99.90;;;;;;5095887;28;20501;-88
2022/03/17 01:59:06;;;;;;;35.55;24.35;;;9.70;99.90;;;;;;5079045;28;20045;-88
2022/03/17 02:01:32;;;;;;;37.50;25.20;;;9.60;99.90;;;;;;5096035;28;20047;-89
2022/03/17 02:03:57;;;;;;;33.35;23.67;;;9.50;99.90;;;;;;5096066;28;20040;-89
2022/03/17 02:06:23;;;;;;;33.85;22.83;;;9.40;99.90;;;;;;5095707;28;20056;-88
2022/03/17 02:08:49;;;;;;;34.85;23.92;;;9.30;99.90;;;;;;5095924;28;20043;-88
2022/03/17 02:13:59;;;;;;;32.92;23.38;;;9.30;99.90;;;;;;5095535;28;20059;-87
2022/03/17 02:16:27;;;;;;;32.75;23.20;;;9.40;99.90;;;;;;5095712;28;20401;-87
2022/03/17 02:18:53;;;;;;;35.63;24.50;;;9.40;99.90;;;;;;5078314;28;20059;-87
2022/03/17 02:21:19;;;;;;;34.53;23.73;;;9.50;99.90;;;;;;5078313;28;20116;-88
2022/03/17 02:26:31;;;;;;;33.55;23.45;;;9.70;99.90;;;;;;5095378;28;20057;-88
2022/03/17 02:28:58;;;;;;;36.78;25.02;;;9.80;99.90;;;;;;5078582;28;20097;-87
2022/03/17 02:31:24;;;;;;;35.45;23.77;;;9.70;99.90;;;;;;5095695;28;20064;-88
2022/03/17 02:33:51;;;;;;;37.45;23.40;;;9.80;99.90;;;;;;5095574;28;20442;-88
2022/03/17 02:36:18;;;;;;;33.95;23.92;;;9.90;99.90;;;;;;5094890;28;20157;-88
2022/03/17 02:38:44;;;;;;;32.22;23.75;;;10.20;99.90;;;;;;5078533;28;20100;-88
2022/03/17 02:41:21;;;;;;;30.83;22.80;;;10.00;99.90;;;;;;5095344;28;20058;-88
2022/03/17 02:43:50;;;;;;;33.22;23.52;;;10.10;99.90;;;;;;5095363;28;20074;-88
2022/03/17 02:46:16;;;;;;;34.33;24.38;;;10.10;99.90;;;;;;5095307;28;20051;-88
2022/03/17 02:48:43;;;;;;;32.28;24.45;;;10.20;99.90;;;;;;5111877;28;20047;-88
2022/03/17 02:51:09;;;;;;;35.08;24.98;;;10.10;99.90;;;;;;5112169;28;20044;-87
2022/03/17 02:53:35;;;;;;;31.50;23.90;;;10.20;99.90;;;;;;5094840;28;20051;-88
2022/03/17 02:56:00;;;;;;;33.42;24.20;;;10.40;99.90;;;;;;5112295;28;20051;-89
2022/03/17 02:58:26;;;;;;;32.40;23.80;;;10.20;99.90;;;;;;5111866;28;20412;-88
2022/03/17 03:00:52;;;;;;;33.53;24.90;;;10.20;99.90;;;;;;5095161;28;20050;-88
2022/03/17 03:03:18;;;;;;;31.85;23.90;;;10.30;99.90;;;;;;5094943;28;20178;-88
2022/03/17 03:05:44;;;;;;;34.65;24.95;;;10.30;99.90;;;;;;5094993;28;20404;-88
2022/03/17 03:08:10;;;;;;;35.95;24.98;;;10.30;99.90;;;;;;5094914;28;20407;-87
2022/03/17 03:10:36;;;;;;;32.90;24.90;;;10.30;99.90;;;;;;5094726;28;20122;-88
2022/03/17 03:13:02;;;;;;;34.03;25.38;;;10.30;99.90;;;;;;5077750;28;20127;-88
2022/03/17 03:15:31;;;;;;;35.60;25.00;;;10.30;99.90;;;;;;5095024;28;20079;-88
2022/03/17 03:17:57;;;;;;;33.75;25.35;;;10.30;99.90;;;;;;5094911;28;20496;-89
2022/03/17 03:20:23;;;;;;;37.92;26.08;;;10.40;99.90;;;;;;5111844;28;20062;-89
2022/03/17 03:22:48;;;;;;;35.50;25.80;;;10.40;99.90;;;;;;5077987;28;20389;-87
2022/03/17 03:25:14;;;;;;;35.70;26.20;;;10.40;99.90;;;;;;5111573;28;20047;-88
2022/03/17 03:27:40;;;;;;;35.50;25.10;;;10.50;99.90;;;;;;5096146;28;20526;-88
2022/03/17 03:30:08;;;;;;;38.90;25.63;;;10.40;99.90;;;;;;5098584;28;20066;-88
2022/03/17 03:32:34;;;;;;;36.13;26.77;;;10.40;99.90;;;;;;5116607;28;20480;-88
2022/03/17 03:37:22;;;;;;;37.75;26.13;;;10.60;99.90;;;;;;5098590;28;20185;-88
2022/03/17 03:37:45;;;;;;;34.95;25.17;;;10.50;99.90;;;;;;5098842;28;20051;-87
2022/03/17 03:40:11;;;;;;;37.35;26.67;;;10.50;99.90;;;;;;5098848;28;20091;-88
2022/03/17 03:42:36;;;;;;;34.08;26.25;;;10.50;99.90;;;;;;5115647;28;20136;-88
2022/03/17 03:45:02;;;;;;;38.95;26.67;;;10.60;99.90;;;;;;5115607;28;20043;-87
2022/03/17 03:47:28;;;;;;;38.78;26.23;;;10.60;99.90;;;;;;5098341;28;20062;-88
2022/03/17 03:49:54;;;;;;;37.75;26.83;;;10.60;99.90;;;;;;5098696;28;20097;-87
2022/03/17 03:52:19;;;;;;;36.08;27.33;;;10.60;99.90;;;;;;5081198;28;20054;-87
2022/03/17 03:54:45;;;;;;;37.05;28.23;;;10.80;99.90;;;;;;5098163;28;20514;-88
2022/03/17 03:57:11;;;;;;;37.22;27.52;;;10.70;99.90;;;;;;5098384;28;20036;-87
2022/03/17 03:59:38;;;;;;;38.88;27.83;;;10.70;99.90;;;;;;5097929;28;20086;-87
2022/03/17 04:02:09;;;;;;;38.10;26.27;;;10.70;99.90;;;;;;5098081;28;20504;-88
2022/03/17 04:04:36;;;;;;;39.42;27.90;;;10.70;99.90;;;;;;5081439;28;20051;-87
2022/03/17 04:07:04;;;;;;;39.13;26.67;;;10.80;99.90;;;;;;5116055;28;20083;-87
2022/03/17 04:09:34;;;;;;;44.80;30.13;;;10.70;99.90;;;;;;5081354;28;20138;-88
2022/03/17 04:12:00;;;;;;;39.08;28.75;;;10.70;99.90;;;;;;5081147;28;20066;-87
2022/03/17 04:14:26;;;;;;;40.83;29.75;;;10.70;99.90;;;;;;5080822;28;20047;-88
2022/03/17 04:16:52;;;;;;;44.42;29.95;;;10.70;99.90;;;;;;5098149;28;20061;-87
2022/03/17 04:19:19;;;;;;;41.92;28.85;;;10.70;99.90;;;;;;5114960;28;20101;-88
2022/03/17 04:21:46;;;;;;;45.10;31.73;;;10.60;99.90;;;;;;5080987;28;20378;-87
2022/03/17 04:24:12;;;;;;;49.95;31.83;;;10.60;99.90;;;;;;5080847;28;20076;-87
2022/03/17 04:26:38;;;;;;;48.92;31.30;;;10.50;99.90;;;;;;5097965;28;20047;-87
2022/03/17 04:29:04;;;;;;;57.60;34.85;;;10.50;99.90;;;;;;5096706;28;20507;-87
2022/03/17 04:31:29;;;;;;;54.25;32.58;;;10.40;99.90;;;;;;5097253;28;20048;-89
2022/03/17 04:33:56;;;;;;;65.25;38.38;;;10.30;99.90;;;;;;5097949;28;20112;-90
2022/03/17 04:36:22;;;;;;;64.28;37.35;;;10.10;99.90;;;;;;5097209;28;20134;-91
2022/03/17 04:38:48;;;;;;;58.17;35.13;;;10.10;99.90;;;;;;5098067;28;20135;-90
2022/03/17 04:41:14;;;;;;;73.07;40.13;;;9.80;99.90;;;;;;5115286;28;20502;-89
2022/03/17 04:43:40;;;;;;;74.95;39.95;;;9.70;99.90;;;;;;5097797;28;20408;-90
2022/03/17 04:46:09;;;;;;;72.90;40.72;;;9.60;99.90;;;;;;5080655;28;20051;-91
2022/03/17 04:48:37;;;;;;;75.25;42.00;;;9.60;99.90;;;;;;5097794;28;20051;-91
2022/03/17 04:51:03;;;;;;;84.60;44.22;;;9.50;99.90;;;;;;5097830;28;20138;-92
2022/03/17 04:53:30;;;;;;;82.97;43.08;;;9.50;99.90;;;;;;5080723;28;20503;-91
2022/03/17 04:56:08;;;;;;;89.70;43.30;;;9.50;99.90;;;;;;5098391;28;20602;-93
2022/03/17 04:58:36;;;;;;;94.75;44.92;;;9.50;99.90;;;;;;5098540;28;20066;-94
2022/03/17 05:01:05;;;;;;;58.67;31.95;;;9.40;99.90;;;;;;5082759;28;20374;-94
2022/03/17 05:03:32;;;;;;;39.70;21.02;;;9.40;99.90;;;;;;5082194;28;20050;-93
2022/03/17 05:05:59;;;;;;;34.47;16.67;;;9.30;99.90;;;;;;5099272;28;20089;-94
2022/03/17 05:08:25;;;;;;;20.75;11.65;;;9.20;99.90;;;;;;5083434;28;20059;-93
2022/03/17 05:10:52;;;;;;;16.42;10.10;;;9.00;99.90;;;;;;5099626;28;20040;-94
2022/03/17 05:13:19;;;;;;;15.05;9.95;;;8.90;99.90;;;;;;5098554;28;20048;-94
2022/03/17 05:15:48;;;;;;;16.65;10.80;;;8.70;99.90;;;;;;5082114;28;20431;-93
2022/03/17 05:18:14;;;;;;;18.63;11.43;;;8.50;99.90;;;;;;5098835;28;20048;-94
2022/03/17 05:20:41;;;;;;;21.63;10.80;;;8.30;99.90;;;;;;5098250;28;20040;-94
2022/03/17 05:23:08;;;;;;;20.73;12.48;;;8.30;99.90;;;;;;5082067;28;20050;-95
2022/03/17 05:25:35;;;;;;;15.13;10.52;;;8.20;99.90;;;;;;5081445;28;20093;-94
2022/03/17 05:28:01;;;;;;;19.73;11.85;;;8.10;99.90;;;;;;5098709;28;20043;-94
2022/03/17 05:30:27;;;;;;;15.23;9.50;;;8.00;99.90;;;;;;5082613;28;20137;-94
2022/03/17 05:32:53;;;;;;;15.52;10.13;;;8.00;99.90;;;;;;5081776;28;20088;-93
2022/03/17 05:35:19;;;;;;;18.30;11.05;;;8.10;99.90;;;;;;5098099;28;20094;-94
2022/03/17 05:37:45;;;;;;;17.13;10.85;;;7.80;99.90;;;;;;5082070;28;20428;-94
2022/03/17 05:40:17;;;;;;;19.08;11.27;;;7.90;99.90;;;;;;5097551;28;20051;-93
2022/03/17 05:42:48;;;;;;;13.02;9.90;;;7.70;99.90;;;;;;5098361;28;20047;-94
2022/03/17 05:45:15;;;;;;;17.45;12.10;;;7.70;99.90;;;;;;5081063;28;20035;-93
2022/03/17 05:47:52;;;;;;;26.35;12.55;;;7.90;99.90;;;;;;5081092;28;20570;-95
2022/03/17 05:50:20;;;;;;;16.10;9.40;;;7.60;99.90;;;;;;5081245;28;20626;-94
2022/03/17 05:52:47;;;;;;;26.00;12.45;;;7.90;99.90;;;;;;5080870;28;20401;-93
2022/03/17 05:55:16;;;;;;;24.48;11.88;;;7.60;99.90;;;;;;5097676;28;20046;-94
2022/03/17 05:57:43;;;;;;;18.52;11.52;;;7.60;99.90;;;;;;5096942;28;20135;-94
2022/03/17 06:00:12;;;;;;;24.50;11.02;;;7.60;99.90;;;;;;5080694;28;20052;-93
2022/03/17 06:02:38;;;;;;;21.17;11.98;;;7.50;99.90;;;;;;5096269;28;20476;-95
2022/03/17 06:05:06;;;;;;;19.40;10.20;;;7.60;99.90;;;;;;5080038;28;20032;-94
2022/03/17 06:07:48;;;;;;;21.27;11.25;;;7.50;99.90;;;;;;5079994;28;20044;-94
2022/03/17 06:10:16;;;;;;;21.80;11.45;;;7.50;99.90;;;;;;5079555;28;20122;-93
2022/03/17 06:12:44;;;;;;;23.25;10.98;;;7.50;99.90;;;;;;5089225;28;20511;-93
2022/03/17 06:15:11;;;;;;;21.88;11.75;;;7.60;99.90;;;;;;5076255;28;20444;-92
2022/03/17 06:17:41;;;;;;;21.42;10.75;;;7.80;99.90;;;;;;5091116;28;20084;-92
2022/03/17 06:20:12;;;;;;;20.90;9.98;;;7.50;99.90;;;;;;5079485;28;20064;-93
2022/03/17 06:22:39;;;;;;;18.90;9.32;;;7.50;99.90;;;;;;5078912;28;20084;-93
2022/03/17 06:25:06;;;;;;;19.13;8.93;;;7.50;99.90;;;;;;5065562;28;20493;-92
2022/03/17 06:27:34;;;;;;;22.38;9.27;;;7.50;99.90;;;;;;5076009;28;20103;-93
2022/03/17 06:30:00;;;;;;;25.75;8.52;;;7.40;99.90;;;;;;5096026;28;20059;-94
2022/03/17 06:32:26;;;;;;;17.40;8.90;;;7.40;99.90;;;;;;5096552;28;20046;-93
2022/03/17 06:34:52;;;;;;;21.67;8.43;;;7.40;99.90;;;;;;5078151;28;20390;-90
2022/03/17 06:37:18;;;;;;;22.23;7.88;;;7.40;99.90;;;;;;5079512;28;20481;-92
2022/03/17 06:39:43;;;;;;;18.45;8.23;;;7.40;99.90;;;;;;5095763;28;20047;-92
2022/03/17 06:42:09;;;;;;;15.40;6.78;;;7.40;99.90;;;;;;5096243;28;20078;-94
2022/03/17 06:44:34;;;;;;;18.13;6.90;;;7.30;99.90;;;;;;5078703;28;20104;-94
2022/03/17 06:47:00;;;;;;;21.90;7.55;;;7.30;99.90;;;;;;5095424;28;20047;-91
2022/03/17 06:49:26;;;;;;;17.65;6.15;;;7.30;99.90;;;;;;5093750;28;20079;-93
2022/03/17 06:51:51;;;;;;;12.52;5.18;;;7.30;99.90;;;;;;5095749;28;20149;-92
2022/03/17 06:54:17;;;;;;;14.68;5.07;;;7.30;99.90;;;;;;5098382;28;20047;-93
2022/03/17 06:56:43;;;;;;;12.70;3.40;;;7.30;99.90;;;;;;5080557;28;20051;-91
2022/03/17 06:59:09;;;;;;;10.95;3.65;;;7.50;99.90;;;;;;5095801;28;20039;-93
2022/03/17 07:01:34;;;;;;;16.10;3.60;;;7.30;99.90;;;;;;5095396;28;20048;-93
2022/03/17 07:04:00;;;;;;;11.68;3.65;;;7.60;99.90;;;;;;5095743;28;20109;-93
2022/03/17 07:06:25;;;;;;;11.50;3.20;;;7.30;99.90;;;;;;5079126;28;20381;-90
2022/03/17 07:08:51;;;;;;;17.63;3.28;;;7.30;99.90;;;;;;5096151;28;20047;-92
2022/03/17 07:11:18;;;;;;;16.27;4.05;;;7.30;99.90;;;;;;5078928;28;20393;-91
2022/03/17 07:13:44;;;;;;;14.77;3.13;;;7.30;99.90;;;;;;5078470;28;20142;-91
2022/03/17 07:16:10;;;;;;;14.50;4.05;;;7.20;99.90;;;;;;5078423;28;20193;-92
2022/03/17 07:18:36;;;;;;;12.95;3.10;;;7.20;99.90;;;;;;5078959;28;20087;-90
2022/03/17 07:21:01;;;;;;;16.20;3.15;;;7.20;99.90;;;;;;5095846;28;20128;-92
2022/03/17 07:23:27;;;;;;;9.15;2.50;;;7.20;99.90;;;;;;5096120;28;20178;-90
2022/03/17 07:25:53;;;;;;;15.32;3.20;;;7.30;99.90;;;;;;5095241;28;20078;-91
2022/03/17 07:28:21;;;;;;;21.33;3.05;;;7.30;99.90;;;;;;5095742;28;20044;-91
2022/03/17 07:30:47;;;;;;;12.85;2.30;;;7.20;99.90;;;;;;5095481;28;20060;-93
2022/03/17 07:33:13;;;;;;;15.93;2.67;;;7.30;99.90;;;;;;5078764;28;20044;-91
2022/03/17 07:35:39;;;;;;;18.27;3.17;;;7.30;99.90;;;;;;5092057;28;20074;-90
2022/03/17 07:38:06;;;;;;;14.88;2.58;;;7.60;99.90;;;;;;5093045;28;20040;-90
2022/03/17 07:40:33;;;;;;;13.88;2.97;;;7.30;99.90;;;;;;5093148;28;20052;-92
2022/03/17 07:43:00;;;;;;;15.48;2.60;;;7.30;99.90;;;;;;5092045;28;20134;-89
2022/03/17 07:45:26;;;;;;;17.70;3.08;;;7.40;99.90;;;;;;5074824;28;20485;-90
2022/03/17 07:47:52;;;;;;;12.30;2.17;;;7.40;99.90;;;;;;5092275;28;20412;-90
2022/03/17 07:50:18;;;;;;;16.55;2.53;;;7.30;99.90;;;;;;5092008;28;20048;-91
2022/03/17 07:52:44;;;;;;;15.68;2.55;;;7.40;99.90;;;;;;5074677;28;20108;-91
2022/03/17 07:55:11;;;;;;;13.35;2.22;;;7.40;99.90;;;;;;5074354;28;20047;-90
2022/03/17 07:57:37;;;;;;;13.35;1.95;;;7.40;99.90;;;;;;5074621;28;20056;-90
2022/03/17 08:00:04;;;;;;;18.63;2.53;;;7.40;99.90;;;;;;5092690;28;20044;-90
2022/03/17 08:02:31;;;;;;;16.25;2.15;;;7.40;99.90;;;;;;5091566;28;20101;-90
2022/03/17 08:04:56;;;;;;;15.45;2.03;;;7.40;99.90;;;;;;5091140;28;20078;-90
2022/03/17 08:07:22;;;;;;;9.45;2.10;;;7.40;99.90;;;;;;5074663;28;20055;-90
2022/03/17 08:09:48;;;;;;;14.82;2.13;;;7.50;99.90;;;;;;5091256;28;20048;-91
2022/03/17 08:12:14;;;;;;;17.15;2.22;;;7.30;99.90;;;;;;5091386;28;20134;-90
2022/03/17 08:14:40;;;;;;;14.93;2.03;;;7.30;99.90;;;;;;5093825;28;20131;-89
2022/03/17 08:17:06;;;;;;;15.27;2.50;;;7.40;99.90;;;;;;5077376;28;20048;-90
2022/03/17 08:19:31;;;;;;;13.32;2.55;;;7.30;99.90;;;;;;5094852;28;20468;-89
2022/03/17 08:21:58;;;;;;;17.98;2.25;;;7.30;99.90;;;;;;5094299;28;20467;-89
2022/03/17 08:24:24;;;;;;;17.67;1.90;;;7.30;99.90;;;;;;5094611;28;20047;-89
2022/03/17 08:26:49;;;;;;;14.52;2.28;;;7.30;99.90;;;;;;5094777;28;20101;-90
2022/03/17 08:29:15;;;;;;;15.90;2.42;;;7.30;99.90;;;;;;5094373;28;20040;-89
2022/03/17 08:31:40;;;;;;;20.05;1.70;;;7.30;99.90;;;;;;5094239;28;20044;-90
2022/03/17 08:34:06;;;;;;;15.07;1.88;;;7.30;99.90;;;;;;5077014;28;20052;-90
2022/03/17 08:36:32;;;;;;;25.95;2.65;;;7.20;99.90;;;;;;5077142;28;20056;-90
2022/03/17 08:38:58;;;;;;;15.95;2.60;;;7.20;99.90;;;;;;5094699;28;20063;-89
2022/03/17 08:41:24;;;;;;;24.25;1.92;;;7.20;99.90;;;;;;5094265;28;20046;-89
2022/03/17 08:43:53;;;;;;;17.20;1.73;;;7.20;99.90;;;;;;5094305;28;20052;-89
2022/03/17 08:49:22;;;;;;;14.20;2.22;;;7.30;99.90;;;;;;5093900;28;20431;-88
2022/03/17 08:51:51;;;;;;;14.93;2.20;;;7.30;99.90;;;;;;5077193;28;20047;-89
2022/03/17 08:54:18;;;;;;;17.40;2.00;;;7.30;99.90;;;;;;5094031;28;20506;-89
2022/03/17 08:56:43;;;;;;;20.48;2.10;;;7.30;99.90;;;;;;5060168;28;20050;-88
2022/03/17 08:59:10;;;;;;;8.02;1.40;;;7.40;99.90;;;;;;5093771;28;20405;-88
2022/03/17 09:01:37;;;;;;;14.75;1.85;;;7.30;99.90;;;;;;5094071;28;20044;-88
2022/03/17 09:04:04;;;;;;;14.55;2.33;;;7.40;99.90;;;;;;5077102;28;20047;-88
2022/03/17 09:06:30;;;;;;;12.82;2.20;;;7.40;99.90;;;;;;5093683;28;20036;-89
2022/03/17 09:08:56;;;;;;;12.20;2.03;;;7.50;99.90;;;;;;5093737;28;20105;-88
2022/03/17 09:11:21;;;;;;;9.82;1.63;;;7.60;99.90;;;;;;5076022;28;20063;-89
2022/03/17 09:13:49;;;;;;;12.65;2.42;;;7.80;99.90;;;;;;5093388;28;20078;-89
2022/03/17 09:16:16;;;;;;;14.75;1.67;;;8.10;99.90;;;;;;5093675;28;20409;-88
2022/03/17 09:18:42;;;;;;;13.35;2.20;;;8.40;99.90;;;;;;5076824;28;20059;-88
2022/03/17 09:21:09;;;;;;;12.20;1.55;;;8.50;99.90;;;;;;5093432;28;20040;-89
2022/03/17 09:23:34;;;;;;;15.27;1.92;;;8.70;99.90;;;;;;5093520;28;20066;-88
2022/03/17 09:26:00;;;;;;;12.55;1.98;;;8.90;99.90;;;;;;5092415;28;20481;-88
2022/03/17 09:28:27;;;;;;;7.03;1.00;;;8.60;99.90;;;;;;5076063;28;20055;-87
2022/03/17 09:30:54;;;;;;;7.97;2.15;;;8.60;99.90;;;;;;5093384;28;20478;-88
2022/03/17 09:33:25;;;;;;;11.63;1.90;;;8.40;99.90;;;;;;5093251;28;20036;-88
2022/03/17 09:35:55;;;;;;;14.40;2.05;;;8.40;99.90;;;;;;5093210;28;20056;-88
2022/03/17 09:38:21;;;;;;;12.10;1.90;;;8.40;99.90;;;;;;5093061;28;20131;-88
2022/03/17 09:40:47;;;;;;;21.63;2.17;;;8.20;99.90;;;;;;5093088;28;20265;-89
2022/03/17 09:43:18;;;;;;;12.40;1.85;;;8.40;99.90;;;;;;5092698;28;20536;-87
2022/03/17 09:45:46;;;;;;;18.95;2.20;;;8.20;99.90;;;;;;5076228;28;20051;-88
2022/03/17 09:48:16;;;;;;;19.50;2.15;;;8.10;99.90;;;;;;5092986;28;20056;-87
2022/03/17 09:50:42;;;;;;;18.25;2.58;;;8.10;99.90;;;;;;5075986;28;20051;-88
2022/03/17 09:53:09;;;;;;;15.70;1.88;;;8.00;99.90;;;;;;5092512;28;20454;-88
2022/03/17 09:55:35;;;;;;;12.45;2.28;;;8.10;99.90;;;;;;5075473;28;20157;-88
2022/03/17 09:58:06;;;;;;;13.63;2.28;;;8.20;99.90;;;;;;5075685;28;20044;-89
2022/03/17 10:03:25;;;;;;;11.23;1.63;;;8.60;99.90;;;;;;5096120;28;20062;-87
2022/03/17 10:05:52;;;;;;;8.70;1.52;;;8.90;99.90;;;;;;5096021;28;20052;-88
2022/03/17 10:08:20;;;;;;;10.27;1.65;;;8.90;99.90;;;;;;5079029;28;20148;-88
2022/03/17 10:10:47;;;;;;;14.02;1.75;;;9.00;99.90;;;;;;5078592;28;20393;-88
2022/03/17 10:13:19;;;;;;;10.32;1.65;;;9.10;99.90;;;;;;5095687;28;20047;-88
2022/03/17 10:16:05;;;;;;;9.88;1.70;;;9.50;99.90;;;;;;5095717;28;20488;-89
2022/03/17 10:18:33;;;;;;;10.77;1.85;;;9.80;99.90;;;;;;5078035;28;20091;-88
2022/03/17 10:21:15;;;;;;;11.43;1.80;;;10.30;99.90;;;;;;5095172;28;20048;-88
2022/03/17 10:23:56;;;;;;;7.03;1.17;;;10.30;99.90;;;;;;5095796;28;20475;-89
2022/03/17 10:26:41;;;;;;;7.28;1.27;;;10.30;99.90;;;;;;5095439;28;20099;-89
2022/03/17 10:29:11;;;;;;;10.20;1.30;;;11.00;99.90;;;;;;5113439;28;20409;-88
2022/03/17 10:31:58;;;;;;;9.55;1.50;;;12.30;99.90;;;;;;5095453;28;20059;-89
2022/03/17 10:34:28;;;;;;;9.90;1.38;;;14.00;99.90;;;;;;5095579;28;20568;-89
2022/03/17 10:37:10;;;;;;;10.00;1.48;;;15.10;99.90;;;;;;5078151;28;20135;-89
2022/03/17 10:39:57;;;;;;;7.63;1.30;;;14.40;99.90;;;;;;5095393;28;20044;-90
2022/03/17 10:42:29;;;;;;;7.28;1.40;;;14.40;99.90;;;;;;5078908;28;20464;-87
2022/03/17 10:45:05;;;;;;;8.30;1.48;;;14.50;99.90;;;;;;5095292;28;20073;-88
2022/03/17 10:47:37;;;;;;;7.57;1.45;;;15.00;99.90;;;;;;5095361;28;20046;-87
2022/03/17 10:50:13;;;;;;;9.38;1.70;;;15.30;99.90;;;;;;5095012;28;20048;-89
2022/03/17 10:52:53;;;;;;;6.03;1.50;;;15.70;99.90;;;;;;5095231;28;20039;-89
2022/03/17 10:55:21;;;;;;;10.20;1.55;;;16.20;96.70;;;;;;5095320;28;20044;-90
2022/03/17 10:57:48;;;;;;;10.05;2.15;;;16.10;98.20;;;;;;5078350;28;20396;-89
2022/03/17 11:00:22;;;;;;;7.72;1.58;;;15.30;99.90;;;;;;5095040;28;20043;-88
2022/03/17 11:02:57;;;;;;;9.95;1.23;;;15.50;94.70;;;;;;5095115;28;20570;-89
2022/03/17 11:05:27;;;;;;;10.40;1.48;;;15.60;96.90;;;;;;5078329;28;20051;-88
2022/03/17 11:07:54;;;;;;;10.45;1.58;;;15.10;98.40;;;;;;5095322;28;20055;-89
2022/03/17 11:10:22;;;;;;;8.02;1.60;;;14.40;99.30;;;;;;5078322;28;20082;-87
2022/03/17 11:12:50;;;;;;;9.60;1.60;;;14.90;99.00;;;;;;5078086;28;20043;-89
2022/03/17 11:15:25;;;;;;;8.98;1.92;;;15.70;94.60;;;;;;5094595;28;20040;-89
2022/03/17 11:17:51;;;;;;;8.45;1.38;;;16.50;87.90;;;;;;5077722;28;20093;-89
2022/03/17 11:20:22;;;;;;;8.23;2.33;;;17.60;81.10;;;;;;5078235;28;20040;-89
2022/03/17 11:23:18;;;;;;;9.75;1.77;;;17.90;73.80;;;;;;5077978;28;20047;-88
2022/03/17 11:25:58;;;;;;;7.13;1.35;;;17.80;61.00;;;;;;5077752;28;20048;-89
2022/03/17 11:28:36;;;;;;;8.50;1.52;;;17.70;63.20;;;;;;5077823;28;20043;-89
2022/03/17 11:31:08;;;;;;;7.93;1.55;;;18.10;71.70;;;;;;5095003;28;20148;-90
2022/03/17 11:33:39;;;;;;;10.15;2.00;;;17.70;69.30;;;;;;5094462;28;20044;-88
2022/03/17 11:36:08;;;;;;;12.10;1.77;;;16.80;71.80;;;;;;5077637;28;20127;-88
2022/03/17 11:38:38;;;;;;;10.35;1.48;;;15.80;72.70;;;;;;5077101;28;20060;-90
2022/03/17 11:41:10;;;;;;;11.20;1.25;;;15.00;83.10;;;;;;5094830;28;20055;-88
2022/03/17 11:43:47;;;;;;;13.57;1.95;;;14.90;90.00;;;;;;5077489;28;20104;-88
2022/03/17 11:46:19;;;;;;;9.02;1.60;;;15.20;84.30;;;;;;5094810;28;20052;-89
2022/03/17 11:48:47;;;;;;;9.70;1.88;;;14.90;78.10;;;;;;5095928;28;20046;-88
2022/03/17 11:51:15;;;;;;;11.32;2.15;;;14.70;91.20;;;;;;5098248;28;20548;-89
2022/03/17 11:53:43;;;;;;;8.27;1.70;;;14.80;89.20;;;;;;5098312;28;20044;-89
2022/03/17 11:56:10;;;;;;;7.22;1.70;;;15.70;75.30;;;;;;5081534;28;20048;-89
2022/03/17 11:58:43;;;;;;;7.22;1.35;;;16.80;71.00;;;;;;5081663;28;20051;-88
2022/03/17 12:01:27;;;;;;;4.97;1.40;;;17.90;66.70;;;;;;5098536;28;20418;-88
2022/03/17 12:04:00;;;;;;;8.77;1.75;;;18.70;58.60;;;;;;5098434;28;20378;-88
2022/03/17 12:06:56;;;;;;;11.73;1.60;;;19.20;56.20;;;;;;5098686;28;20047;-89
2022/03/17 12:09:35;;;;;;;11.10;1.77;;;20.00;55.30;;;;;;5081695;28;20047;-90
2022/03/17 12:12:01;;;;;;;9.93;1.80;;;20.50;54.20;;;;;;5081199;28;20043;-88
2022/03/17 12:14:29;;;;;;;8.18;1.42;;;20.90;54.80;;;;;;5097927;28;20134;-88
2022/03/17 12:16:56;;;;;;;7.93;2.03;;;20.60;53.00;;;;;;5081218;28;20204;-88
2022/03/17 12:19:37;;;;;;;7.57;1.98;;;19.80;54.00;;;;;;5098204;28;20083;-90
2022/03/17 12:22:16;;;;;;;9.18;2.13;;;18.80;56.90;;;;;;5098184;28;20518;-90
2022/03/17 12:24:51;;;;;;;10.18;1.60;;;19.20;56.90;;;;;;5098795;28;20412;-89
2022/03/17 12:27:29;;;;;;;7.07;1.45;;;19.50;55.20;;;;;;5098095;28;20051;-91
2022/03/17 12:30:03;;;;;;;9.80;1.90;;;19.00;53.80;;;;;;5098346;28;20051;-89
2022/03/17 12:32:35;;;;;;;11.88;1.90;;;17.90;56.10;;;;;;5080986;28;20043;-90
2022/03/17 12:35:04;;;;;;;10.30;1.58;;;17.30;62.30;;;;;;5097891;28;20039;-89
2022/03/17 12:37:32;;;;;;;10.73;1.80;;;18.10;62.10;;;;;;5097177;28;20507;-90
2022/03/17 12:40:00;;;;;;;10.55;1.88;;;19.00;57.40;;;;;;5081102;28;20083;-89
2022/03/17 12:42:29;;;;;;;7.47;1.90;;;19.20;55.90;;;;;;5080907;28;20072;-90
2022/03/17 12:45:05;;;;;;;8.55;1.73;;;19.20;55.00;;;;;;5097804;28;20043;-90
2022/03/17 12:47:33;;;;;;;8.63;2.22;;;17.90;54.50;;;;;;5080667;28;20499;-90
2022/03/17 12:50:01;;;;;;;10.13;2.53;;;16.60;59.90;;;;;;5097523;28;20039;-89
2022/03/17 12:52:30;;;;;;;12.93;1.92;;;16.20;63.50;;;;;;5097261;28;20040;-89
2022/03/17 12:54:58;;;;;;;11.38;2.25;;;16.80;63.80;;;;;;5097758;28;20079;-89